Time;durP1;ratioP1;P1;durP2;ratioP2;P2;SDS_P1;SDS_P2;PMS_P1;PMS_P2;Temp;Humidity;BMP_temperature;BMP_pressure;BME280_temperature;BME280_humidity;BME280_pressure;Samples;Min_cycle;Max_cycle;Signal;HPM_P1;HPM_P2
2022/07/19 00:04:29;;;;;;;8.48;7.20;;;;;;;22.96;77.47;100342.53;10337652;28;20080;-68
2022/07/19 00:09:30;;;;;;;11.32;7.97;;;;;;;22.53;77.93;100295.34;10337425;28;20050;-68
2022/07/19 00:14:31;;;;;;;11.75;8.45;;;;;;;22.70;79.15;100369.22;10337038;28;20065;-68
2022/07/19 00:19:32;;;;;;;12.18;7.82;;;;;;;22.71;79.66;100362.75;10338657;28;20038;-69
2022/07/19 00:24:33;;;;;;;10.27;8.25;;;;;;;22.29;80.13;100290.09;10336834;28;20121;-68
2022/07/19 00:29:34;;;;;;;13.95;9.13;;;;;;;22.69;81.67;100367.59;10337010;28;20061;-68
2022/07/19 00:34:35;;;;;;;12.45;8.85;;;;;;;22.58;83.03;100373.09;10351565;28;20506;-69
2022/07/19 00:39:36;;;;;;;12.32;9.20;;;;;;;22.55;84.35;100396.06;10336341;28;20045;-68
2022/07/19 00:44:37;;;;;;;14.77;9.25;;;;;;;22.41;85.65;100398.28;10336537;28;20065;-68
2022/07/19 00:49:39;;;;;;;12.00;9.55;;;;;;;21.36;87.11;100273.31;10336813;28;20069;-68
2022/07/19 00:54:42;;;;;;;17.60;10.60;;;;;;;22.17;88.56;100408.41;10336216;28;20429;-68
2022/07/19 00:59:43;;;;;;;12.05;9.18;;;;;;;22.15;87.81;100402.38;10335163;28;20046;-69
2022/07/19 01:04:44;;;;;;;14.60;9.75;;;;;;;22.35;88.05;100423.63;10336727;28;20043;-68
2022/07/19 01:09:45;;;;;;;19.55;9.30;;;;;;;22.34;87.38;100403.81;10350093;28;20073;-69
2022/07/19 01:14:46;;;;;;;19.65;10.10;;;;;;;22.08;87.73;100359.25;10335053;28;20418;-68
2022/07/19 01:19:47;;;;;;;15.75;10.45;;;;;;;22.31;88.56;100409.72;10334553;28;20490;-68
2022/07/19 01:24:48;;;;;;;17.13;10.45;;;;;;;22.40;88.85;100425.56;10334882;28;20042;-68
2022/07/19 01:29:48;;;;;;;23.35;10.18;;;;;;;22.38;88.69;100387.94;10334132;28;20058;-68
2022/07/19 01:34:49;;;;;;;17.40;9.27;;;;;;;22.54;88.12;100410.66;10334627;28;20050;-68
2022/07/19 01:39:50;;;;;;;14.40;10.18;;;;;;;22.61;88.32;100434.88;10333771;28;20044;-69
2022/07/19 01:44:51;;;;;;;18.38;9.93;;;;;;;22.38;88.37;100377.13;10334732;28;20038;-68
2022/07/19 01:49:52;;;;;;;12.40;9.10;;;;;;;22.69;88.42;100421.75;10333246;28;20062;-68
2022/07/19 01:54:52;;;;;;;18.02;9.48;;;;;;;22.71;87.49;100403.38;10333433;28;20137;-69
2022/07/19 01:59:53;;;;;;;35.50;11.40;;;;;;;22.75;87.60;100407.22;10333724;28;20046;-69
2022/07/19 02:04:54;;;;;;;12.65;10.25;;;;;;;22.88;87.17;100426.91;10333310;28;20506;-69
2022/07/19 02:09:57;;;;;;;11.25;10.00;;;;;;;22.79;88.03;100412.94;10333088;28;20050;-69
2022/07/19 02:14:58;;;;;;;13.93;10.10;;;;;;;23.01;86.75;100427.44;10347826;28;20038;-69
2022/07/19 02:19:59;;;;;;;45.20;12.70;;;;;;;23.07;87.23;100436.44;10333085;28;20529;-69
2022/07/19 02:25:00;;;;;;;17.05;9.40;;;;;;;23.04;87.19;100412.56;10336120;28;20396;-69
2022/07/19 02:30:01;;;;;;;12.27;9.38;;;;;;;22.84;86.94;100385.13;10347218;28;20111;-68
2022/07/19 02:35:04;;;;;;;14.32;9.52;;;;;;;23.19;86.87;100448.00;10332218;28;20498;-68
2022/07/19 02:40:05;;;;;;;16.90;8.95;;;;;;;23.04;87.04;100426.13;10331839;28;20112;-68
2022/07/19 02:45:06;;;;;;;9.52;8.45;;;;;;;22.96;87.63;100451.72;10331482;28;20046;-69
2022/07/19 02:50:08;;;;;;;19.85;9.20;;;;;;;22.35;88.07;100369.50;10332352;28;20529;-68
2022/07/19 02:55:09;;;;;;;12.02;8.90;;;;;;;22.32;88.73;100375.41;10332475;28;20538;-68
2022/07/19 03:00:10;;;;;;;52.83;12.18;;;;;;;22.77;88.74;100447.59;10331302;28;20031;-68
2022/07/19 03:05:11;;;;;;;16.17;9.43;;;;;;;22.76;89.10;100468.47;10331587;28;20450;-68
2022/07/19 03:10:12;;;;;;;18.70;9.60;;;;;;;22.75;88.93;100464.09;10331203;28;20192;-70
2022/07/19 03:15:13;;;;;;;31.08;9.88;;;;;;;22.42;89.11;100405.31;10332048;28;20125;-68
2022/07/19 03:20:15;;;;;;;13.48;9.90;;;;;;;22.73;89.03;100444.53;10334366;28;20046;-71
2022/07/19 03:25:16;;;;;;;19.00;10.45;;;;;;;22.53;88.85;100409.03;10339730;28;20096;-68
2022/07/19 03:30:17;;;;;;;20.05;10.63;;;;;;;22.81;88.83;100456.88;10339448;28;20502;-68
2022/07/19 03:35:19;;;;;;;12.80;10.15;;;;;;;22.87;89.29;100476.72;10338878;28;20080;-68
2022/07/19 03:40:20;;;;;;;14.75;10.05;;;;;;;22.85;89.25;100481.56;10349922;28;20470;-69
2022/07/19 03:45:20;;;;;;;19.48;10.93;;;;;;;22.42;89.53;100412.63;10364041;28;20049;-69
2022/07/19 03:50:21;;;;;;;13.95;9.88;;;;;;;22.78;89.88;100471.72;10368604;28;20490;-69
2022/07/19 03:55:22;;;;;;;19.15;10.48;;;;;;;22.69;90.14;100450.72;10374553;28;20041;-69
2022/07/19 04:00:23;;;;;;;14.57;10.35;;;;;;;22.87;90.06;100474.03;10374156;28;20037;-70
2022/07/19 04:05:24;;;;;;;12.77;9.80;;;;;;;22.90;89.74;100484.38;10373047;28;20390;-70
2022/07/19 04:10:24;;;;;;;12.68;9.82;;;;;;;22.96;89.66;100491.53;10376529;28;20046;-70
2022/07/19 04:15:25;;;;;;;13.30;9.45;;;;;;;23.01;89.29;100467.25;10373870;28;20046;-70
2022/07/19 04:20:26;;;;;;;13.85;9.68;;;;;;;23.18;88.81;100462.63;10354031;28;20583;-70
2022/07/19 04:25:27;;;;;;;15.18;10.82;;;;;;;23.25;88.61;100465.16;10339976;28;20045;-70
2022/07/19 04:30:29;;;;;;;15.65;9.65;;;;;;;22.97;88.68;100420.03;10375776;28;20056;-70
2022/07/19 04:35:30;;;;;;;20.45;10.02;;;;;;;22.89;88.53;100409.59;10369832;28;20046;-70
2022/07/19 04:40:30;;;;;;;17.13;9.63;;;;;;;23.28;88.80;100469.28;10371569;28;20513;-70
2022/07/19 04:45:31;;;;;;;13.00;9.98;;;;;;;23.12;88.59;100460.06;10370502;28;20054;-70
2022/07/19 04:50:32;;;;;;;12.02;10.02;;;;;;;23.34;88.71;100487.25;10370767;28;20053;-69
2022/07/19 04:55:34;;;;;;;12.50;9.68;;;;;;;23.44;88.33;100484.66;10347770;28;20042;-70
2022/07/19 05:00:34;;;;;;;13.98;9.15;;;;;;;23.52;87.78;100497.81;10377342;28;20476;-70
2022/07/19 05:05:35;;;;;;;13.00;8.98;;;;;;;23.18;87.38;100424.69;10376838;28;20038;-71
2022/07/19 05:10:36;;;;;;;11.40;8.65;;;;;;;23.56;86.63;100454.75;10376122;28;20073;-70
2022/07/19 05:15:37;;;;;;;16.02;7.88;;;;;;;23.77;85.45;100466.69;10376476;28;20072;-70
2022/07/19 05:20:38;;;;;;;15.57;7.32;;;;;;;23.74;83.96;100415.66;10376516;28;20493;-70
2022/07/19 05:25:39;;;;;;;16.27;6.40;;;;;;;24.42;82.44;100475.84;10375462;28;20112;-70
2022/07/19 05:30:41;;;;;;;11.48;6.78;;;;;;;24.44;81.05;100452.81;10375786;28;20050;-70
2022/07/19 05:35:42;;;;;;;11.70;5.97;;;;;;;24.86;79.21;100468.38;10374663;28;20034;-71
2022/07/19 05:40:43;;;;;;;16.05;6.43;;;;;;;24.85;78.36;100468.63;10374650;28;20203;-71
2022/07/19 05:45:44;;;;;;;21.67;8.50;;;;;;;23.81;78.12;100321.34;10375041;28;20058;-70
2022/07/19 05:50:45;;;;;;;12.00;7.32;;;;;;;24.62;78.52;100467.06;10374377;28;20045;-70
2022/07/19 05:55:46;;;;;;;12.18;6.82;;;;;;;24.53;78.97;100475.72;10373995;28;20069;-70
2022/07/19 06:06:07;;;;;;;12.45;8.20;;;;;;;24.14;79.32;100466.84;10373677;28;20069;-70
2022/07/19 06:11:07;;;;;;;18.48;9.00;;;;;;;24.13;79.65;100467.94;10373988;28;20049;-71
2022/07/19 06:16:09;;;;;;;23.80;10.65;;;;;;;23.28;79.74;100337.28;10373131;28;20038;-71
2022/07/19 06:21:16;;;;;;;19.63;9.80;;;;;;;24.15;80.60;100476.66;10373590;28;20041;-70
2022/07/19 06:26:17;;;;;;;26.92;9.70;;;;;;;23.75;80.04;100412.69;10373295;28;20072;-71
2022/07/19 06:31:18;;;;;;;19.10;10.30;;;;;;;24.14;79.88;100462.25;10373069;28;20042;-71
2022/07/19 06:36:20;;;;;;;29.83;8.88;;;;;;;24.43;79.00;100481.03;10373416;28;20049;-71
2022/07/19 06:41:21;;;;;;;9.00;6.60;;;;;;;24.43;77.29;100415.88;10388166;28;20589;-70
2022/07/19 06:46:22;;;;;;;15.27;6.68;;;;;;;24.71;75.87;100451.94;10372611;28;20145;-70
2022/07/19 06:51:23;;;;;;;17.48;5.95;;;;;;;24.99;74.97;100484.25;10373294;28;20133;-71
2022/07/19 06:56:23;;;;;;;15.57;5.68;;;;;;;24.92;74.27;100445.59;10373145;28;20045;-71
2022/07/19 07:01:25;;;;;;;12.68;5.65;;;;;;;24.79;72.99;100399.84;10372895;28;20046;-70
2022/07/19 07:06:25;;;;;;;12.02;5.28;;;;;;;25.32;72.14;100473.34;10372241;28;20486;-70
2022/07/19 07:11:26;;;;;;;15.90;5.60;;;;;;;25.52;72.08;100470.75;10372209;28;20045;-71
2022/07/19 07:16:27;;;;;;;11.55;5.40;;;;;;;25.34;71.05;100419.50;10372899;28;20490;-72
2022/07/19 07:21:29;;;;;;;8.90;5.20;;;;;;;24.98;70.40;100379.34;10372152;28;20038;-71
2022/07/19 07:26:31;;;;;;;10.13;5.43;;;;;;;25.30;70.41;100462.72;10372492;28;20517;-71
2022/07/19 07:31:32;;;;;;;15.52;5.13;;;;;;;24.82;71.03;100416.44;10371908;28;20224;-71
2022/07/19 07:36:33;;;;;;;10.52;5.53;;;;;;;24.91;70.40;100415.97;10372417;28;20494;-71
2022/07/19 07:41:34;;;;;;;8.15;4.80;;;;;;;24.86;70.15;100408.63;10372177;28;20081;-71
2022/07/19 07:46:35;;;;;;;9.27;4.80;;;;;;;25.31;70.14;100486.13;10371129;28;20081;-70
2022/07/19 07:51:36;;;;;;;8.68;5.10;;;;;;;25.44;69.58;100480.22;10371622;28;20084;-70
2022/07/19 07:56:36;;;;;;;14.32;5.05;;;;;;;25.19;69.36;100414.84;10371335;28;20080;-71
2022/07/19 08:01:39;;;;;;;11.32;4.57;;;;;;;25.82;68.72;100488.34;10371587;28;20064;-71
2022/07/19 08:06:39;;;;;;;11.07;4.90;;;;;;;25.41;67.92;100399.16;10372290;28;20061;-71
2022/07/19 08:11:40;;;;;;;9.88;4.88;;;;;;;25.95;68.08;100483.19;10393293;28;20103;-70
2022/07/19 08:16:41;;;;;;;8.77;4.80;;;;;;;25.54;67.10;100394.31;10378343;28;20092;-71
2022/07/19 08:21:42;;;;;;;8.23;4.90;;;;;;;25.56;67.29;100395.69;10378874;28;20486;-72
2022/07/19 08:26:43;;;;;;;8.98;4.97;;;;;;;26.00;66.85;100459.81;10377263;28;20188;-71
2022/07/19 08:31:44;;;;;;;9.65;4.53;;;;;;;25.63;66.42;100398.97;10377046;28;20048;-70
2022/07/19 08:36:44;;;;;;;9.90;4.60;;;;;;;25.81;66.08;100383.25;10378026;28;20460;-70
2022/07/19 08:41:45;;;;;;;9.90;4.50;;;;;;;26.39;65.78;100452.81;10377199;28;20037;-71
2022/07/19 08:46:46;;;;;;;8.43;4.70;;;;;;;26.61;64.73;100468.94;10377276;28;20050;-70
2022/07/19 08:51:48;;;;;;;7.40;4.20;;;;;;;26.21;64.45;100385.28;10376965;28;20050;-71
2022/07/19 09:02:08;;;;;;;10.20;4.25;;;;;;;25.98;64.84;100448.38;10376147;28;20064;-73
2022/07/19 09:07:09;;;;;;;7.93;4.18;;;;;;;26.04;65.15;100475.34;10376174;28;20133;-71
2022/07/19 09:12:13;;;;;;;13.68;5.03;;;;;;;25.49;65.29;100390.50;10376511;28;20417;-71
2022/07/19 09:17:16;;;;;;;9.13;4.22;;;;;;;25.94;64.79;100472.59;10375693;28;20045;-70
2022/07/19 09:22:19;;;;;;;12.98;4.82;;;;;;;25.88;65.17;100449.97;10375318;28;20493;-71
2022/07/19 09:27:23;;;;;;;9.98;5.03;;;;;;;25.32;64.93;100389.88;10375631;28;20041;-72
2022/07/19 09:32:25;;;;;;;5.68;4.40;;;;;;;25.56;65.44;100441.13;10375421;28;20038;-71
2022/07/19 09:37:34;;;;;;;15.85;5.35;;;;;;;25.49;65.86;100449.53;10375821;28;20046;-72
2022/07/19 09:42:45;;;;;;;12.25;5.07;;;;;;;25.22;66.22;100433.34;10375354;28;20048;-72
2022/07/19 09:47:47;;;;;;;26.10;4.75;;;;;;;25.22;67.18;100442.31;10374595;28;20054;-71
2022/07/19 09:52:50;;;;;;;10.27;4.33;;;;;;;24.66;67.29;100390.25;10375254;28;20128;-71
2022/07/19 09:57:51;;;;;;;7.45;4.70;;;;;;;24.85;67.93;100439.56;10375124;28;20141;-71
2022/07/19 10:02:58;;;;;;;16.70;4.40;;;;;;;24.70;68.23;100428.59;10373848;28;20125;-71
2022/07/19 10:08:00;;;;;;;11.82;4.25;;;;;;;24.68;68.45;100436.16;10374355;28;20049;-72
2022/07/19 10:13:03;;;;;;;14.45;4.75;;;;;;;24.58;68.32;100424.13;10374058;28;20033;-72
2022/07/19 10:18:16;;;;;;;6.93;4.07;;;;;;;24.46;68.87;100414.53;10373738;28;20085;-72
2022/07/19 10:23:26;;;;;;;19.73;5.30;;;;;;;24.47;68.90;100432.44;10374181;28;20482;-74
2022/07/19 10:28:30;;;;;;;14.60;5.10;;;;;;;24.38;68.96;100435.63;10372647;28;20049;-71
2022/07/19 10:33:37;;;;;;;21.85;5.10;;;;;;;24.34;69.14;100401.09;10373157;28;20124;-71
2022/07/19 10:38:37;;;;;;;8.93;3.97;;;;;;;24.46;68.67;100414.53;10372615;28;20050;-72
2022/07/19 10:44:08;;;;;;;13.65;4.13;;;;;;;24.54;69.09;100417.59;10373222;28;20042;-72
2022/07/19 10:49:08;;;;;;;11.63;4.05;;;;;;;24.49;68.53;100409.41;10373129;28;20406;-72
2022/07/19 10:54:12;;;;;;;10.43;4.15;;;;;;;24.53;68.82;100410.53;10372880;28;20056;-71
2022/07/19 10:59:13;;;;;;;13.50;4.10;;;;;;;24.59;68.73;100419.56;10372519;28;20071;-71
2022/07/19 11:04:28;;;;;;;7.88;4.63;;;;;;;24.55;68.84;100421.13;10371735;28;20048;-71
2022/07/19 11:09:50;;;;;;;10.07;4.25;;;;;;;24.38;69.12;100419.34;10372135;28;20088;-71
2022/07/19 11:14:51;;;;;;;11.50;4.10;;;;;;;24.24;69.28;100417.28;10372198;28;20108;-71
2022/07/19 11:20:10;;;;;;;9.50;3.55;;;;;;;24.19;69.30;100406.38;10372179;28;20034;-72
2022/07/19 11:25:13;;;;;;;13.73;4.78;;;;;;;23.68;69.52;100345.06;10371572;28;20551;-72
2022/07/19 11:30:14;;;;;;;8.07;3.80;;;;;;;23.63;69.85;100352.31;10371228;28;20082;-73
2022/07/19 11:35:16;;;;;;;13.05;3.70;;;;;;;24.06;69.78;100404.91;10371477;28;20050;-72
2022/07/19 11:40:17;;;;;;;9.73;3.97;;;;;;;24.12;69.95;100420.97;10373089;28;20497;-72
2022/07/19 11:45:21;;;;;;;8.43;3.60;;;;;;;23.76;70.13;100362.00;10366462;28;20124;-72
2022/07/19 11:50:23;;;;;;;;;;;;;;;24.35;69.11;100427.16;10351638;28;20137;-70
2022/07/19 11:55:44;;;;;;;8.40;3.88;;;;;;;24.04;70.54;100413.28;10379101;28;19925;-72
2022/07/19 12:00:45;;;;;;;10.18;3.53;;;;;;;24.15;70.16;100436.75;10363367;28;20064;-71
2022/07/19 12:05:55;;;;;;;7.78;3.60;;;;;;;24.18;71.16;100431.91;10375046;28;20056;-71
2022/07/19 12:10:56;;;;;;;9.68;4.10;;;;;;;24.16;70.88;100437.56;10368852;28;20050;-70
2022/07/19 12:16:02;;;;;;;13.98;3.83;;;;;;;24.17;70.61;100447.38;10372368;28;20072;-71
2022/07/19 12:21:16;;;;;;;11.05;4.25;;;;;;;24.21;71.68;100434.91;10372857;28;20037;-71
2022/07/19 12:26:17;;;;;;;12.93;4.68;;;;;;;23.87;72.42;100443.25;10371405;28;20089;-72
2022/07/19 12:31:18;;;;;;;7.82;4.75;;;;;;;23.54;74.29;100444.13;10364805;28;20148;-70
2022/07/19 12:36:35;;;;;;;20.23;5.60;;;;;;;22.99;76.71;100401.66;10373211;28;20046;-71
2022/07/19 12:41:36;;;;;;;8.20;4.10;;;;;;;22.60;75.81;100366.38;10371945;28;20124;-71
2022/07/19 12:46:37;;;;;;;7.35;4.00;;;;;;;22.71;76.35;100411.50;10372444;28;20473;-71
2022/07/19 12:51:42;;;;;;;6.72;3.95;;;;;;;22.65;76.76;100453.09;10371658;28;20394;-71
2022/07/19 12:56:43;;;;;;;8.77;4.18;;;;;;;22.11;76.87;100395.81;10372693;28;20034;-70
2022/07/19 13:01:44;;;;;;;14.13;4.20;;;;;;;21.96;76.70;100374.72;10369632;28;20064;-70
2022/07/19 13:06:44;;;;;;;15.10;3.90;;;;;;;22.10;76.48;100424.75;10365693;28;20494;-70
2022/07/19 13:11:45;;;;;;;12.10;4.20;;;;;;;22.08;76.49;100434.19;10371003;28;20390;-69
2022/07/19 13:16:47;;;;;;;8.68;3.60;;;;;;;21.33;76.67;100330.50;10359388;28;20418;-70
2022/07/19 13:21:48;;;;;;;7.60;2.85;;;;;;;22.10;76.59;100468.03;10364835;28;20042;-70
2022/07/19 13:26:49;;;;;;;9.95;3.13;;;;;;;22.04;76.11;100455.47;10367513;28;20164;-69
2022/07/19 13:31:50;;;;;;;11.55;3.75;;;;;;;22.06;76.69;100466.06;10374782;28;20128;-69
2022/07/19 13:36:51;;;;;;;7.25;3.35;;;;;;;21.85;77.75;100441.31;10371507;28;20038;-69
2022/07/19 13:41:52;;;;;;;16.70;3.85;;;;;;;21.91;79.22;100472.00;10374729;28;20038;-69
2022/07/19 13:46:53;;;;;;;6.05;3.28;;;;;;;21.83;80.16;100483.16;10375501;28;20054;-70
2022/07/19 13:51:54;;;;;;;10.05;3.40;;;;;;;21.63;80.58;100459.25;10374188;28;20046;-71
2022/07/19 13:56:55;;;;;;;5.85;3.38;;;;;;;21.74;81.27;100485.41;10372970;28;20461;-70
2022/07/19 14:01:56;;;;;;;9.88;4.78;;;;;;;21.70;81.13;100495.09;10373973;28;20038;-70
2022/07/19 14:06:58;;;;;;;17.63;4.55;;;;;;;21.66;81.95;100502.03;10372500;28;20125;-70
2022/07/19 14:11:59;;;;;;;6.25;3.95;;;;;;;21.12;82.34;100429.19;10375005;28;20383;-69
2022/07/19 14:17:00;;;;;;;12.05;4.53;;;;;;;21.65;82.46;100492.25;10369876;28;20042;-70
2022/07/19 14:22:00;;;;;;;12.45;4.30;;;;;;;21.68;82.71;100515.31;10363903;28;20054;-70
2022/07/19 14:27:01;;;;;;;14.48;4.00;;;;;;;21.61;82.80;100478.41;10387032;28;20041;-70
2022/07/19 14:32:02;;;;;;;15.18;5.13;;;;;;;21.82;82.76;100497.75;10374069;28;20049;-69
2022/07/19 14:37:04;;;;;;;37.13;4.22;;;;;;;21.62;83.07;100490.84;10373106;28;20104;-69
2022/07/19 14:42:05;;;;;;;9.07;3.50;;;;;;;21.64;83.26;100493.31;10372437;28;20064;-69
2022/07/19 14:47:08;;;;;;;13.98;4.57;;;;;;;21.29;83.33;100432.00;10373350;28;20145;-70
2022/07/19 14:52:09;;;;;;;7.77;4.50;;;;;;;21.76;83.25;100501.41;10370506;28;20052;-70
2022/07/19 14:57:09;;;;;;;8.30;4.25;;;;;;;21.23;83.25;100426.72;10366569;28;20042;-71
2022/07/19 15:02:10;;;;;;;11.85;4.25;;;;;;;21.62;83.32;100508.94;10361486;28;20540;-71
2022/07/19 15:07:11;;;;;;;11.95;4.03;;;;;;;21.14;83.43;100439.75;10370649;28;20520;-71
2022/07/19 15:12:12;;;;;;;10.20;4.68;;;;;;;21.58;83.53;100521.31;10366953;28;20096;-72
2022/07/19 15:17:13;;;;;;;7.55;4.20;;;;;;;21.56;83.71;100526.94;10372123;28;20402;-71
2022/07/19 15:22:14;;;;;;;8.18;3.97;;;;;;;21.51;83.73;100523.28;10376356;28;20041;-71
2022/07/19 15:27:15;;;;;;;9.13;3.85;;;;;;;21.52;83.88;100533.88;10373262;28;20041;-71
2022/07/19 15:32:15;;;;;;;11.35;4.00;;;;;;;21.18;83.88;100482.28;10366650;28;20085;-69
2022/07/19 15:37:17;;;;;;;6.60;4.57;;;;;;;21.08;84.37;100473.09;10374773;28;20037;-69
2022/07/19 15:42:17;;;;;;;25.77;4.97;;;;;;;21.31;84.95;100535.25;10374931;28;20041;-72
2022/07/19 15:47:18;;;;;;;8.88;5.32;;;;;;;21.39;85.17;100537.66;10375184;28;20065;-70
2022/07/19 15:52:19;;;;;;;11.27;4.88;;;;;;;21.36;85.55;100554.34;10376722;28;20490;-71
2022/07/19 15:57:20;;;;;;;8.85;4.80;;;;;;;20.87;85.94;100466.41;10368185;28;20034;-71
2022/07/19 16:02:21;;;;;;;9.45;4.50;;;;;;;21.00;86.00;100477.00;10374337;28;20045;-71
2022/07/19 16:07:22;;;;;;;13.48;4.57;;;;;;;21.28;86.59;100534.91;10362349;28;20127;-73
2022/07/19 16:12:23;;;;;;;6.47;3.90;;;;;;;21.28;87.01;100549.25;10365677;28;20088;-69
2022/07/19 16:17:25;;;;;;;6.03;4.18;;;;;;;21.29;87.25;100553.56;10378423;28;20413;-71
2022/07/19 16:22:28;;;;;;;5.95;3.80;;;;;;;21.27;86.97;100544.91;10343956;28;20050;-72
2022/07/19 16:27:29;;;;;;;4.60;3.57;;;;;;;21.37;87.09;100552.44;10336365;28;20050;-70
2022/07/19 16:32:30;;;;;;;3.72;3.33;;;;;;;20.98;87.21;100496.13;10329248;28;22705;-70
2022/07/19 16:37:31;;;;;;;5.82;4.05;;;;;;;20.94;87.29;100494.94;10360866;28;20468;-76
2022/07/19 16:42:32;;;;;;;8.98;3.40;;;;;;;21.33;87.43;100562.88;10352857;28;20054;-69
2022/07/19 16:47:33;;;;;;;7.93;3.67;;;;;;;21.22;87.48;100547.47;10354434;28;20050;-70
2022/07/19 16:52:33;;;;;;;23.35;15.98;;;;;;;20.82;87.45;100479.75;10356676;28;20399;-70
2022/07/19 16:57:34;;;;;;;7.45;5.28;;;;;;;20.82;87.69;100502.22;10376654;28;20478;-69
2022/07/19 17:02:35;;;;;;;9.05;4.90;;;;;;;21.13;88.53;100576.69;10362056;28;20052;-68
2022/07/19 17:07:36;;;;;;;5.78;4.22;;;;;;;21.03;88.67;100567.50;10356904;28;20056;-69
2022/07/19 17:12:41;;;;;;;11.80;4.63;;;;;;;21.05;88.84;100578.91;10354841;28;20458;-70
2022/07/19 17:17:42;;;;;;;5.57;4.03;;;;;;;20.90;89.09;100563.97;10357265;28;20046;-69
2022/07/19 17:22:43;;;;;;;5.85;4.40;;;;;;;20.75;89.13;100561.69;10356293;28;20046;-69
2022/07/19 17:27:44;;;;;;;6.18;4.00;;;;;;;20.84;89.25;100582.97;10353353;28;20532;-70
2022/07/19 17:32:45;;;;;;;5.95;4.53;;;;;;;20.71;89.58;100582.09;10357810;28;20132;-67
2022/07/19 17:37:46;;;;;;;8.43;4.75;;;;;;;20.69;89.41;100581.50;10353070;28;20602;-68
2022/07/19 17:42:47;;;;;;;7.47;5.10;;;;;;;20.72;89.03;100591.84;10352260;28;20038;-69
2022/07/19 17:47:47;;;;;;;8.00;5.45;;;;;;;20.75;88.66;100601.34;10362066;28;20068;-69
2022/07/19 17:52:48;;;;;;;8.50;5.20;;;;;;;20.16;88.53;100511.19;10331997;28;20042;-70
2022/07/19 17:57:49;;;;;;;7.45;4.63;;;;;;;20.37;88.63;100553.91;10333416;28;20038;-68
2022/07/19 18:02:50;;;;;;;6.88;4.38;;;;;;;20.55;88.33;100584.59;10333232;28;20109;-73
2022/07/19 18:07:53;;;;;;;6.38;4.05;;;;;;;20.34;88.50;100565.13;10340029;28;20042;-71
2022/07/19 18:12:54;;;;;;;6.53;4.37;;;;;;;20.47;88.17;100586.53;10372801;28;20054;-71
2022/07/19 18:17:55;;;;;;;5.93;3.92;;;;;;;20.47;87.41;100574.94;10374516;28;20402;-72
2022/07/19 18:22:55;;;;;;;7.93;4.22;;;;;;;20.01;86.54;100507.03;10373717;28;20140;-69
2022/07/19 18:27:56;;;;;;;5.63;3.60;;;;;;;20.47;86.50;100586.53;10372437;28;20413;-70
2022/07/19 18:32:57;;;;;;;8.60;3.92;;;;;;;19.84;86.47;100506.00;10372123;28;20045;-70
2022/07/19 18:37:58;;;;;;;8.00;4.55;;;;;;;20.32;86.86;100586.13;10374264;28;20509;-72
2022/07/19 18:42:59;;;;;;;11.65;3.88;;;;;;;19.80;86.64;100497.53;10373056;28;20064;-70
2022/07/19 18:48:01;;;;;;;4.57;3.42;;;;;;;20.24;86.72;100567.53;10373015;28;20502;-74
2022/07/19 18:53:02;;;;;;;5.82;4.22;;;;;;;19.73;86.87;100491.38;10371725;28;20042;-70
2022/07/19 18:58:03;;;;;;;7.95;4.22;;;;;;;20.11;86.96;100559.63;10372022;28;20046;-71
2022/07/19 19:03:04;;;;;;;7.00;4.97;;;;;;;19.98;87.07;100541.69;10372657;28;20045;-70
2022/07/19 19:08:06;;;;;;;17.98;5.35;;;;;;;19.98;87.18;100544.38;10371080;28;20050;-70
2022/07/19 19:13:06;;;;;;;7.55;4.68;;;;;;;19.68;86.92;100506.56;10346740;28;20061;-70
2022/07/19 19:18:08;;;;;;;8.75;4.75;;;;;;;19.97;87.04;100575.94;10332234;28;20502;-68
2022/07/19 19:23:12;;;;;;;8.48;4.55;;;;;;;20.00;86.97;100563.88;10332278;28;20072;-70
2022/07/19 19:28:12;;;;;;;8.48;4.32;;;;;;;20.15;86.43;100567.00;10369328;28;20525;-71
2022/07/19 19:33:13;;;;;;;5.95;3.80;;;;;;;20.14;85.45;100559.16;10360334;28;20038;-70
2022/07/19 19:38:15;;;;;;;6.07;3.97;;;;;;;19.72;85.17;100499.72;10372445;28;20058;-70
2022/07/19 19:43:16;;;;;;;5.80;3.72;;;;;;;20.22;85.02;100594.75;10370518;28;20498;-69
2022/07/19 19:48:17;;;;;;;5.53;3.50;;;;;;;20.09;84.66;100578.69;10372142;28;20054;-69
2022/07/19 19:53:18;;;;;;;6.35;3.10;;;;;;;20.14;83.66;100591.53;10371992;28;20379;-69
2022/07/19 19:58:19;;;;;;;7.88;3.45;;;;;;;19.83;82.99;100531.28;10370591;28;20136;-69
2022/07/19 20:03:20;;;;;;;4.38;2.95;;;;;;;20.06;82.79;100571.06;10375639;28;20034;-69
2022/07/19 20:08:20;;;;;;;6.10;3.28;;;;;;;20.11;82.63;100589.28;10378447;28;20124;-70
2022/07/19 20:13:23;;;;;;;5.43;2.75;;;;;;;19.35;82.78;100483.44;10379176;28;20037;-69
2022/07/19 20:18:24;;;;;;;6.40;3.00;;;;;;;19.94;82.49;100578.25;10377978;28;20076;-69
2022/07/19 20:23:25;;;;;;;4.63;2.80;;;;;;;19.64;82.44;100546.59;10378270;28;20038;-69
2022/07/19 20:28:26;;;;;;;3.85;2.58;;;;;;;19.36;82.88;100493.19;10377723;28;20068;-69
2022/07/19 20:33:27;;;;;;;4.70;2.78;;;;;;;19.49;82.85;100508.41;10377845;28;20441;-70
2022/07/19 20:38:28;;;;;;;4.30;2.88;;;;;;;19.59;83.22;100543.72;10377522;28;20092;-69
2022/07/19 20:43:32;;;;;;;3.80;2.38;;;;;;;19.71;83.34;100549.25;10376249;28;20042;-69
2022/07/19 20:48:33;;;;;;;4.68;2.80;;;;;;;19.58;83.11;100532.13;10377459;28;20057;-69
2022/07/19 20:53:34;;;;;;;3.72;2.70;;;;;;;19.63;82.74;100544.13;10376604;28;20822;-69
2022/07/19 20:58:35;;;;;;;3.40;2.42;;;;;;;19.34;82.12;100487.19;10364652;28;20042;-70
2022/07/19 21:03:37;;;;;;;4.53;2.85;;;;;;;19.68;81.82;100545.13;10373157;28;20042;-69
2022/07/19 21:08:38;;;;;;;5.50;2.72;;;;;;;19.34;80.95;100481.81;10391697;28;20042;-69
2022/07/19 21:13:39;;;;;;;5.43;2.88;;;;;;;19.74;80.72;100532.63;10375593;28;20532;-69
2022/07/19 21:18:40;;;;;;;7.95;3.00;;;;;;;19.86;80.76;100538.09;10375685;28;20037;-69
2022/07/19 21:23:40;;;;;;;4.60;3.00;;;;;;;19.90;80.29;100540.13;10376300;28;20042;-69
2022/07/19 21:28:41;;;;;;;4.97;2.85;;;;;;;19.94;80.21;100541.31;10375629;28;20077;-69
2022/07/19 21:34:00;;;;;;;6.50;3.33;;;;;;;19.88;80.19;100534.13;10374917;28;20038;-69
2022/07/19 21:39:05;;;;;;;5.03;2.83;;;;;;;19.70;80.11;100520.66;10375959;28;20378;-71
2022/07/19 21:44:07;;;;;;;4.85;2.97;;;;;;;19.63;80.47;100519.88;10375212;28;20041;-71
2022/07/19 21:49:08;;;;;;;4.32;2.72;;;;;;;19.50;80.37;100510.03;10375384;28;20068;-72
2022/07/19 21:54:08;;;;;;;3.65;2.65;;;;;;;19.38;80.33;100507.25;10374434;28;20042;-71
2022/07/19 21:59:09;;;;;;;5.60;4.18;;;;;;;19.33;80.17;100491.78;10374555;28;20490;-71
2022/07/19 22:04:10;;;;;;;6.15;3.47;;;;;;;19.60;80.06;100510.38;10374453;28;20070;-71
2022/07/19 22:09:11;;;;;;;5.68;3.05;;;;;;;19.63;80.39;100523.41;10373520;28;20057;-70
2022/07/19 22:14:12;;;;;;;4.35;2.78;;;;;;;19.49;81.05;100527.25;10375042;28;20412;-71
2022/07/19 22:19:12;;;;;;;3.90;2.92;;;;;;;18.89;82.34;100441.63;10373128;28;20124;-69
2022/07/19 22:24:13;;;;;;;7.32;2.97;;;;;;;19.07;83.98;100506.28;10373710;28;20069;-70
2022/07/19 22:29:14;;;;;;;5.80;3.50;;;;;;;18.20;84.59;100393.06;10372506;28;20049;-71
2022/07/19 22:34:15;;;;;;;4.70;3.20;;;;;;;19.05;85.61;100547.94;10373632;28;20038;-71
2022/07/19 22:39:16;;;;;;;4.47;3.15;;;;;;;18.84;87.10;100520.34;10373227;28;20040;-71
2022/07/19 22:44:16;;;;;;;4.10;2.95;;;;;;;18.93;87.64;100528.97;10388318;28;20038;-70
2022/07/19 22:49:17;;;;;;;4.47;3.03;;;;;;;18.88;87.94;100516.19;10373407;28;20062;-70
2022/07/19 22:54:18;;;;;;;12.82;4.13;;;;;;;18.59;89.32;100477.22;10372407;28;20521;-71
2022/07/19 22:59:19;;;;;;;5.72;4.00;;;;;;;19.04;90.02;100525.56;10372739;28;20042;-70
2022/07/19 23:04:20;;;;;;;6.88;4.40;;;;;;;18.51;91.28;100439.00;10351521;28;20051;-71
2022/07/19 23:09:21;;;;;;;5.05;4.25;;;;;;;18.98;91.93;100496.84;10361182;28;20622;-70